El Carrizo, Mexico

4:32 PM MST on December 18, 2014 (GMT -0700)
Culiacan International | Change Station
CLOSE
Current Station
Airport
Location: Culiacan,
Elevation: 105 ft
Nearby Weather Stations

Elev 105 ft 24.77 °N, 107.47 °W | Updated 50 minutes ago

Overcast
Overcast
81 °F
Feels Like 82 °F
N
0
Wind Variable Wind from North

Today
High -- | Low -- °F
--% Chance of Precip.
Yesterday
High -- | Low -- °F
Precip. -- in
6:43 AM 5:23 PM
Waning Crescent, 11% visible
Pressure 29.96 in
Visibility 10.0 miles
Clouds Overcast 23000 ft
Heat Index 82 °F
Dew Point 63 °F
Humidity 54%
Rainfall 0.00 in
Snow Depth Not available.
UV 0 out of 12
Pollen Not available.
Air Quality Not available.
Flu Activity Not available.
METAR MMCL 182242Z 00000KT 10SM OVC230 27/17 A2996 RMK 8/008 BINOVC

More Conditions Fewer Conditions

Pressure 29.96 in
Visibility 10.0 miles
Clouds Overcast 23000 ft
Heat Index 82 °F
Dew Point 63 °F
Humidity 54%
Rainfall 0.00 in
Snow Depth Not available.
UV 0 out of 12
Pollen Not available.
Air Quality Not available.
Flu Activity Not available.
METAR MMCL 182242Z 00000KT 10SM OVC230 27/17 A2996 RMK 8/008 BINOVC

More Conditions Fewer Conditions

10-Day Weather Forecast

Almanac

Astronomy

Dec. 18, 2014 Rise Set
Actual Time
Civil Twilight
Nautical Twilight
Astronomical Twilight
Moon
Length of Visible Light
Length of Day
Tomorrow will be .
, % of the Moon is Illuminated

Today's Extremes

Country Highs Country Lows

Community

WunderPhotos

Upload Photos

1,779,013 photos uploaded!

WunderBlogs® & News

Nearby

Air Quality

  Air Quality AQ Index Pollutant
Not available.

Snow Depth

Station Depth Elevation

Earthquake Activity

City Distance Mag. Time & Date
Minimum magnitude displayed is 2.5.

Coastal Water Temperatures

Place Temperature

Nearby Weather Stations